sensor_id;sensor_type;location;lat;lon;timestamp;temperature;humidity
3690;DHT22;1861;50.240;8.596;2023-05-10T00:00:52;15.90;99.90
3690;DHT22;1861;50.240;8.596;2023-05-10T00:03:22;15.80;99.90
3690;DHT22;1861;50.240;8.596;2023-05-10T00:05:50;15.80;99.90
3690;DHT22;1861;50.240;8.596;2023-05-10T00:08:18;15.80;99.90
3690;DHT22;1861;50.240;8.596;2023-05-10T00:10:46;15.80;99.90
3690;DHT22;1861;50.240;8.596;2023-05-10T00:13:15;15.70;99.90
3690;DHT22;1861;50.240;8.596;2023-05-10T00:15:43;15.80;99.90
3690;DHT22;1861;50.240;8.596;2023-05-10T00:18:12;15.80;99.90
3690;DHT22;1861;50.240;8.596;2023-05-10T00:20:40;15.70;99.90
3690;DHT22;1861;50.240;8.596;2023-05-10T00:23:08;15.70;99.90
3690;DHT22;1861;50.240;8.596;2023-05-10T00:25:36;15.70;99.90
3690;DHT22;1861;50.240;8.596;2023-05-10T00:28:05;15.70;99.90
3690;DHT22;1861;50.240;8.596;2023-05-10T00:30:33;15.70;99.90
3690;DHT22;1861;50.240;8.596;2023-05-10T00:33:01;15.70;99.90
3690;DHT22;1861;50.240;8.596;2023-05-10T00:35:31;15.70;99.90
3690;DHT22;1861;50.240;8.596;2023-05-10T00:37:59;15.70;99.90
3690;DHT22;1861;50.240;8.596;2023-05-10T00:40:27;15.70;99.90
3690;DHT22;1861;50.240;8.596;2023-05-10T00:42:59;15.60;99.90
3690;DHT22;1861;50.240;8.596;2023-05-10T00:45:28;15.70;99.90
3690;DHT22;1861;50.240;8.596;2023-05-10T00:47:56;15.70;99.90
3690;DHT22;1861;50.240;8.596;2023-05-10T00:50:25;15.70;99.90
3690;DHT22;1861;50.240;8.596;2023-05-10T00:52:54;15.60;99.90
3690;DHT22;1861;50.240;8.596;2023-05-10T00:55:23;15.60;99.90
3690;DHT22;1861;50.240;8.596;2023-05-10T00:57:52;15.60;99.90
3690;DHT22;1861;50.240;8.596;2023-05-10T01:00:20;15.60;99.90
3690;DHT22;1861;50.240;8.596;2023-05-10T01:02:48;15.60;99.90
3690;DHT22;1861;50.240;8.596;2023-05-10T01:05:17;15.50;99.90
3690;DHT22;1861;50.240;8.596;2023-05-10T01:07:45;15.60;99.90
3690;DHT22;1861;50.240;8.596;2023-05-10T01:10:14;15.50;99.90
3690;DHT22;1861;50.240;8.596;2023-05-10T01:12:45;15.50;99.90
3690;DHT22;1861;50.240;8.596;2023-05-10T01:15:15;15.50;99.90
3690;DHT22;1861;50.240;8.596;2023-05-10T01:17:45;15.50;99.90
3690;DHT22;1861;50.240;8.596;2023-05-10T01:20:15;15.50;99.90
3690;DHT22;1861;50.240;8.596;2023-05-10T01:23:10;15.40;99.90
3690;DHT22;1861;50.240;8.596;2023-05-10T01:25:56;15.50;99.90
3690;DHT22;1861;50.240;8.596;2023-05-10T01:28:57;15.50;99.90
3690;DHT22;1861;50.240;8.596;2023-05-10T01:32:02;15.50;99.90
3690;DHT22;1861;50.240;8.596;2023-05-10T01:34:35;15.50;99.90
3690;DHT22;1861;50.240;8.596;2023-05-10T01:37:10;15.50;99.90
3690;DHT22;1861;50.240;8.596;2023-05-10T01:39:43;15.50;99.90
3690;DHT22;1861;50.240;8.596;2023-05-10T01:42:16;15.40;99.90
3690;DHT22;1861;50.240;8.596;2023-05-10T01:44:56;15.40;99.90
3690;DHT22;1861;50.240;8.596;2023-05-10T01:47:32;15.40;99.90
3690;DHT22;1861;50.240;8.596;2023-05-10T01:50:06;15.40;99.90
3690;DHT22;1861;50.240;8.596;2023-05-10T01:52:40;15.40;99.90
3690;DHT22;1861;50.240;8.596;2023-05-10T01:55:14;15.40;99.90
3690;DHT22;1861;50.240;8.596;2023-05-10T01:57:44;15.40;99.90
3690;DHT22;1861;50.240;8.596;2023-05-10T02:00:14;15.40;99.90
3690;DHT22;1861;50.240;8.596;2023-05-10T02:02:48;15.40;99.90
3690;DHT22;1861;50.240;8.596;2023-05-10T02:05:18;15.40;99.90
3690;DHT22;1861;50.240;8.596;2023-05-10T02:07:47;15.40;99.90
3690;DHT22;1861;50.240;8.596;2023-05-10T02:10:16;15.30;99.90
3690;DHT22;1861;50.240;8.596;2023-05-10T02:12:47;15.40;99.90
3690;DHT22;1861;50.240;8.596;2023-05-10T02:15:19;15.30;99.90
3690;DHT22;1861;50.240;8.596;2023-05-10T02:17:50;15.30;99.90
3690;DHT22;1861;50.240;8.596;2023-05-10T02:20:19;15.40;99.90
3690;DHT22;1861;50.240;8.596;2023-05-10T02:22:49;15.40;99.90
3690;DHT22;1861;50.240;8.596;2023-05-10T02:25:19;15.40;99.90
3690;DHT22;1861;50.240;8.596;2023-05-10T02:27:48;15.30;99.90
3690;DHT22;1861;50.240;8.596;2023-05-10T02:30:18;15.40;99.90
3690;DHT22;1861;50.240;8.596;2023-05-10T02:32:47;15.30;99.90
3690;DHT22;1861;50.240;8.596;2023-05-10T02:35:19;15.30;99.90
3690;DHT22;1861;50.240;8.596;2023-05-10T02:37:47;15.30;99.90
3690;DHT22;1861;50.240;8.596;2023-05-10T02:40:16;15.30;99.90
3690;DHT22;1861;50.240;8.596;2023-05-10T02:42:47;15.30;99.90
3690;DHT22;1861;50.240;8.596;2023-05-10T02:45:19;15.30;99.90
3690;DHT22;1861;50.240;8.596;2023-05-10T02:47:48;15.30;99.90
3690;DHT22;1861;50.240;8.596;2023-05-10T02:50:18;15.30;99.90
3690;DHT22;1861;50.240;8.596;2023-05-10T02:52:52;15.30;99.90
3690;DHT22;1861;50.240;8.596;2023-05-10T02:55:26;15.30;99.90
3690;DHT22;1861;50.240;8.596;2023-05-10T02:58:00;15.40;99.90
3690;DHT22;1861;50.240;8.596;2023-05-10T03:00:28;15.30;99.90
3690;DHT22;1861;50.240;8.596;2023-05-10T03:02:57;15.30;99.90
3690;DHT22;1861;50.240;8.596;2023-05-10T03:05:27;15.30;99.90
3690;DHT22;1861;50.240;8.596;2023-05-10T03:07:59;15.30;99.90
3690;DHT22;1861;50.240;8.596;2023-05-10T03:10:31;15.20;99.90
3690;DHT22;1861;50.240;8.596;2023-05-10T03:13:10;15.20;99.90
3690;DHT22;1861;50.240;8.596;2023-05-10T03:15:48;15.20;99.90
3690;DHT22;1861;50.240;8.596;2023-05-10T03:18:23;15.20;99.90
3690;DHT22;1861;50.240;8.596;2023-05-10T03:20:57;15.20;99.90
3690;DHT22;1861;50.240;8.596;2023-05-10T03:23:27;15.20;99.90
3690;DHT22;1861;50.240;8.596;2023-05-10T03:25:58;15.20;99.90
3690;DHT22;1861;50.240;8.596;2023-05-10T03:28:27;15.20;99.90
3690;DHT22;1861;50.240;8.596;2023-05-10T03:30:56;15.10;99.90
3690;DHT22;1861;50.240;8.596;2023-05-10T03:33:25;15.20;99.90
3690;DHT22;1861;50.240;8.596;2023-05-10T03:35:55;15.10;99.90
3690;DHT22;1861;50.240;8.596;2023-05-10T03:38:23;15.10;99.90
3690;DHT22;1861;50.240;8.596;2023-05-10T03:40:51;15.10;99.90
3690;DHT22;1861;50.240;8.596;2023-05-10T03:43:19;15.10;99.90
3690;DHT22;1861;50.240;8.596;2023-05-10T03:45:47;15.10;99.90
3690;DHT22;1861;50.240;8.596;2023-05-10T03:48:15;15.10;99.90
3690;DHT22;1861;50.240;8.596;2023-05-10T03:50:43;15.20;99.90
3690;DHT22;1861;50.240;8.596;2023-05-10T03:53:12;15.10;99.90
3690;DHT22;1861;50.240;8.596;2023-05-10T03:55:40;15.10;99.90
3690;DHT22;1861;50.240;8.596;2023-05-10T03:58:10;15.10;99.90
3690;DHT22;1861;50.240;8.596;2023-05-10T04:00:38;15.10;99.90
3690;DHT22;1861;50.240;8.596;2023-05-10T04:03:11;15.10;99.90
3690;DHT22;1861;50.240;8.596;2023-05-10T04:05:39;15.10;99.90
3690;DHT22;1861;50.240;8.596;2023-05-10T04:08:07;15.10;99.90
3690;DHT22;1861;50.240;8.596;2023-05-10T04:10:36;15.10;99.90
3690;DHT22;1861;50.240;8.596;2023-05-10T04:13:04;15.10;99.90
3690;DHT22;1861;50.240;8.596;2023-05-10T04:15:33;15.10;99.90
3690;DHT22;1861;50.240;8.596;2023-05-10T04:18:01;15.10;99.90
3690;DHT22;1861;50.240;8.596;2023-05-10T04:20:29;15.10;99.90
3690;DHT22;1861;50.240;8.596;2023-05-10T04:22:57;15.10;99.90
3690;DHT22;1861;50.240;8.596;2023-05-10T04:25:25;15.10;99.90
3690;DHT22;1861;50.240;8.596;2023-05-10T04:27:54;15.10;99.90
3690;DHT22;1861;50.240;8.596;2023-05-10T04:30:22;15.10;99.90
3690;DHT22;1861;50.240;8.596;2023-05-10T04:32:50;15.00;99.90
3690;DHT22;1861;50.240;8.596;2023-05-10T04:35:18;15.00;99.90
3690;DHT22;1861;50.240;8.596;2023-05-10T04:37:46;15.00;99.90
3690;DHT22;1861;50.240;8.596;2023-05-10T04:40:14;15.00;99.90
3690;DHT22;1861;50.240;8.596;2023-05-10T04:42:44;15.00;99.90
3690;DHT22;1861;50.240;8.596;2023-05-10T04:45:13;15.10;99.90
3690;DHT22;1861;50.240;8.596;2023-05-10T04:47:42;15.10;99.90
3690;DHT22;1861;50.240;8.596;2023-05-10T04:50:10;15.10;99.90
3690;DHT22;1861;50.240;8.596;2023-05-10T04:52:38;15.10;99.90
3690;DHT22;1861;50.240;8.596;2023-05-10T04:55:07;15.10;99.90
3690;DHT22;1861;50.240;8.596;2023-05-10T04:57:36;15.10;99.90
3690;DHT22;1861;50.240;8.596;2023-05-10T05:00:06;15.10;99.90
3690;DHT22;1861;50.240;8.596;2023-05-10T05:02:35;15.10;99.90
3690;DHT22;1861;50.240;8.596;2023-05-10T05:05:04;15.10;99.90
3690;DHT22;1861;50.240;8.596;2023-05-10T05:07:32;15.10;99.90
3690;DHT22;1861;50.240;8.596;2023-05-10T05:10:00;15.10;99.90
3690;DHT22;1861;50.240;8.596;2023-05-10T05:12:28;15.20;99.90
3690;DHT22;1861;50.240;8.596;2023-05-10T05:14:57;15.10;99.90
3690;DHT22;1861;50.240;8.596;2023-05-10T05:17:25;15.20;99.90
3690;DHT22;1861;50.240;8.596;2023-05-10T05:19:54;15.10;99.90
3690;DHT22;1861;50.240;8.596;2023-05-10T05:22:22;15.20;99.90
3690;DHT22;1861;50.240;8.596;2023-05-10T05:24:54;15.20;99.90
3690;DHT22;1861;50.240;8.596;2023-05-10T05:27:22;15.20;99.90
3690;DHT22;1861;50.240;8.596;2023-05-10T05:29:52;15.20;99.90
3690;DHT22;1861;50.240;8.596;2023-05-10T05:32:20;15.20;99.90
3690;DHT22;1861;50.240;8.596;2023-05-10T05:34:49;15.20;99.90
3690;DHT22;1861;50.240;8.596;2023-05-10T05:37:20;15.10;99.90
3690;DHT22;1861;50.240;8.596;2023-05-10T05:39:49;15.20;99.90
3690;DHT22;1861;50.240;8.596;2023-05-10T05:42:17;15.20;99.90
3690;DHT22;1861;50.240;8.596;2023-05-10T05:44:45;15.20;99.90
3690;DHT22;1861;50.240;8.596;2023-05-10T05:47:13;15.20;99.90
3690;DHT22;1861;50.240;8.596;2023-05-10T05:49:41;15.20;99.90
3690;DHT22;1861;50.240;8.596;2023-05-10T05:52:12;15.20;99.90
3690;DHT22;1861;50.240;8.596;2023-05-10T05:54:41;15.20;99.90
3690;DHT22;1861;50.240;8.596;2023-05-10T05:57:10;15.20;99.90
3690;DHT22;1861;50.240;8.596;2023-05-10T05:59:38;15.20;99.90
3690;DHT22;1861;50.240;8.596;2023-05-10T06:02:08;15.20;99.90
3690;DHT22;1861;50.240;8.596;2023-05-10T06:04:36;15.20;99.90
3690;DHT22;1861;50.240;8.596;2023-05-10T06:07:05;15.20;99.90
3690;DHT22;1861;50.240;8.596;2023-05-10T06:09:33;15.20;99.90
3690;DHT22;1861;50.240;8.596;2023-05-10T06:12:02;15.20;99.90
3690;DHT22;1861;50.240;8.596;2023-05-10T06:14:30;15.20;99.90
3690;DHT22;1861;50.240;8.596;2023-05-10T06:16:59;15.20;99.90
3690;DHT22;1861;50.240;8.596;2023-05-10T06:19:27;15.20;99.90
3690;DHT22;1861;50.240;8.596;2023-05-10T06:21:55;15.20;99.90
3690;DHT22;1861;50.240;8.596;2023-05-10T06:24:23;15.20;99.90
3690;DHT22;1861;50.240;8.596;2023-05-10T06:26:52;15.20;99.90
3690;DHT22;1861;50.240;8.596;2023-05-10T06:29:21;15.20;99.90
3690;DHT22;1861;50.240;8.596;2023-05-10T06:31:49;15.20;99.90
3690;DHT22;1861;50.240;8.596;2023-05-10T06:34:17;15.30;99.90
3690;DHT22;1861;50.240;8.596;2023-05-10T06:36:46;15.30;99.90
3690;DHT22;1861;50.240;8.596;2023-05-10T06:39:14;15.30;99.90
3690;DHT22;1861;50.240;8.596;2023-05-10T06:41:42;15.30;99.90
3690;DHT22;1861;50.240;8.596;2023-05-10T06:44:10;15.30;99.90
3690;DHT22;1861;50.240;8.596;2023-05-10T06:46:41;15.40;99.90
3690;DHT22;1861;50.240;8.596;2023-05-10T06:49:09;15.40;99.90
3690;DHT22;1861;50.240;8.596;2023-05-10T06:51:37;15.40;99.90
3690;DHT22;1861;50.240;8.596;2023-05-10T06:54:05;15.40;99.90
3690;DHT22;1861;50.240;8.596;2023-05-10T06:56:33;15.40;99.90
3690;DHT22;1861;50.240;8.596;2023-05-10T06:59:02;15.40;99.90
3690;DHT22;1861;50.240;8.596;2023-05-10T07:01:30;15.40;99.90
3690;DHT22;1861;50.240;8.596;2023-05-10T07:03:59;15.50;99.90
3690;DHT22;1861;50.240;8.596;2023-05-10T07:06:27;15.50;99.90
3690;DHT22;1861;50.240;8.596;2023-05-10T07:08:59;15.60;99.90
3690;DHT22;1861;50.240;8.596;2023-05-10T07:11:28;15.60;99.90
3690;DHT22;1861;50.240;8.596;2023-05-10T07:13:56;15.60;99.90
3690;DHT22;1861;50.240;8.596;2023-05-10T07:16:24;15.60;99.90
3690;DHT22;1861;50.240;8.596;2023-05-10T07:18:52;15.60;99.90
3690;DHT22;1861;50.240;8.596;2023-05-10T07:21:22;15.60;99.90
3690;DHT22;1861;50.240;8.596;2023-05-10T07:23:51;15.60;99.90
3690;DHT22;1861;50.240;8.596;2023-05-10T07:26:19;15.60;99.90
3690;DHT22;1861;50.240;8.596;2023-05-10T07:28:47;15.60;99.90
3690;DHT22;1861;50.240;8.596;2023-05-10T07:31:15;15.60;99.90
3690;DHT22;1861;50.240;8.596;2023-05-10T07:33:43;15.60;99.90
3690;DHT22;1861;50.240;8.596;2023-05-10T07:36:12;15.60;99.90
3690;DHT22;1861;50.240;8.596;2023-05-10T07:38:41;15.60;99.90
3690;DHT22;1861;50.240;8.596;2023-05-10T07:41:11;15.60;99.90
3690;DHT22;1861;50.240;8.596;2023-05-10T07:43:39;15.60;99.90
3690;DHT22;1861;50.240;8.596;2023-05-10T07:46:07;15.60;99.90
3690;DHT22;1861;50.240;8.596;2023-05-10T07:48:37;15.60;99.90
3690;DHT22;1861;50.240;8.596;2023-05-10T07:51:05;15.60;99.90
3690;DHT22;1861;50.240;8.596;2023-05-10T07:53:35;15.60;99.90
3690;DHT22;1861;50.240;8.596;2023-05-10T07:56:21;15.60;99.90
3690;DHT22;1861;50.240;8.596;2023-05-10T07:58:49;15.60;99.90
3690;DHT22;1861;50.240;8.596;2023-05-10T08:01:17;15.50;99.90
3690;DHT22;1861;50.240;8.596;2023-05-10T08:03:45;15.60;99.90
3690;DHT22;1861;50.240;8.596;2023-05-10T08:06:14;15.60;99.90
3690;DHT22;1861;50.240;8.596;2023-05-10T08:08:42;15.60;99.90
3690;DHT22;1861;50.240;8.596;2023-05-10T08:11:10;15.60;99.90
3690;DHT22;1861;50.240;8.596;2023-05-10T08:13:39;15.50;99.90
3690;DHT22;1861;50.240;8.596;2023-05-10T08:16:07;15.60;99.90
3690;DHT22;1861;50.240;8.596;2023-05-10T08:18:36;15.50;99.90
3690;DHT22;1861;50.240;8.596;2023-05-10T08:21:04;15.60;99.90
3690;DHT22;1861;50.240;8.596;2023-05-10T08:23:33;15.60;99.90
3690;DHT22;1861;50.240;8.596;2023-05-10T08:26:01;15.70;99.90
3690;DHT22;1861;50.240;8.596;2023-05-10T08:28:29;15.70;99.90
3690;DHT22;1861;50.240;8.596;2023-05-10T08:30:58;15.60;99.90
3690;DHT22;1861;50.240;8.596;2023-05-10T08:33:26;15.70;99.90
3690;DHT22;1861;50.240;8.596;2023-05-10T08:35:54;15.70;99.90
3690;DHT22;1861;50.240;8.596;2023-05-10T08:38:22;15.60;99.90
3690;DHT22;1861;50.240;8.596;2023-05-10T08:40:54;15.60;99.90
3690;DHT22;1861;50.240;8.596;2023-05-10T08:43:27;15.60;99.90
3690;DHT22;1861;50.240;8.596;2023-05-10T08:45:57;15.60;99.90
3690;DHT22;1861;50.240;8.596;2023-05-10T08:48:29;15.60;99.90
3690;DHT22;1861;50.240;8.596;2023-05-10T08:50:58;15.60;99.90
3690;DHT22;1861;50.240;8.596;2023-05-10T08:53:29;15.60;99.90
3690;DHT22;1861;50.240;8.596;2023-05-10T08:55:58;15.70;99.90
3690;DHT22;1861;50.240;8.596;2023-05-10T08:58:26;15.70;99.90
3690;DHT22;1861;50.240;8.596;2023-05-10T09:00:57;15.60;99.90
3690;DHT22;1861;50.240;8.596;2023-05-10T09:03:25;15.70;99.90
3690;DHT22;1861;50.240;8.596;2023-05-10T09:05:53;15.70;99.90
3690;DHT22;1861;50.240;8.596;2023-05-10T09:08:23;15.70;99.90
3690;DHT22;1861;50.240;8.596;2023-05-10T09:10:53;15.70;99.90
3690;DHT22;1861;50.240;8.596;2023-05-10T09:13:22;15.70;99.90
3690;DHT22;1861;50.240;8.596;2023-05-10T09:15:51;15.80;99.90
3690;DHT22;1861;50.240;8.596;2023-05-10T09:18:21;15.80;99.90
3690;DHT22;1861;50.240;8.596;2023-05-10T09:20:49;15.80;99.90
3690;DHT22;1861;50.240;8.596;2023-05-10T09:23:17;15.90;99.90
3690;DHT22;1861;50.240;8.596;2023-05-10T09:25:45;15.90;99.90
3690;DHT22;1861;50.240;8.596;2023-05-10T09:28:14;15.90;99.90
3690;DHT22;1861;50.240;8.596;2023-05-10T09:30:42;16.00;99.90
3690;DHT22;1861;50.240;8.596;2023-05-10T09:33:10;16.00;99.90
3690;DHT22;1861;50.240;8.596;2023-05-10T09:35:39;16.00;99.90
3690;DHT22;1861;50.240;8.596;2023-05-10T09:38:07;16.00;99.90
3690;DHT22;1861;50.240;8.596;2023-05-10T09:40:37;16.00;99.90
3690;DHT22;1861;50.240;8.596;2023-05-10T09:43:07;16.00;99.90
3690;DHT22;1861;50.240;8.596;2023-05-10T09:45:36;16.00;99.90
3690;DHT22;1861;50.240;8.596;2023-05-10T09:48:05;16.10;99.90
3690;DHT22;1861;50.240;8.596;2023-05-10T09:50:34;16.10;99.90
3690;DHT22;1861;50.240;8.596;2023-05-10T09:53:03;16.10;99.90
3690;DHT22;1861;50.240;8.596;2023-05-10T09:55:39;16.20;99.90
3690;DHT22;1861;50.240;8.596;2023-05-10T09:58:11;16.10;99.90
3690;DHT22;1861;50.240;8.596;2023-05-10T10:00:40;16.20;99.90
3690;DHT22;1861;50.240;8.596;2023-05-10T10:03:13;16.20;99.90
3690;DHT22;1861;50.240;8.596;2023-05-10T10:05:42;16.20;99.90
3690;DHT22;1861;50.240;8.596;2023-05-10T10:08:13;16.20;99.90
3690;DHT22;1861;50.240;8.596;2023-05-10T10:10:42;16.30;99.90
3690;DHT22;1861;50.240;8.596;2023-05-10T10:13:13;16.30;99.90
3690;DHT22;1861;50.240;8.596;2023-05-10T10:15:43;16.30;99.90
3690;DHT22;1861;50.240;8.596;2023-05-10T10:18:13;16.30;99.90
3690;DHT22;1861;50.240;8.596;2023-05-10T10:20:42;16.30;99.90
3690;DHT22;1861;50.240;8.596;2023-05-10T10:23:10;16.40;99.90
3690;DHT22;1861;50.240;8.596;2023-05-10T10:25:40;16.40;99.90
3690;DHT22;1861;50.240;8.596;2023-05-10T10:28:19;16.50;99.90
3690;DHT22;1861;50.240;8.596;2023-05-10T10:30:55;16.50;99.90
3690;DHT22;1861;50.240;8.596;2023-05-10T10:33:43;16.50;99.90
3690;DHT22;1861;50.240;8.596;2023-05-10T10:36:19;16.40;99.90
3690;DHT22;1861;50.240;8.596;2023-05-10T10:39:00;16.40;99.90
3690;DHT22;1861;50.240;8.596;2023-05-10T10:41:33;16.40;99.90
3690;DHT22;1861;50.240;8.596;2023-05-10T10:44:22;16.40;99.90
3690;DHT22;1861;50.240;8.596;2023-05-10T10:47:01;16.40;99.90
3690;DHT22;1861;50.240;8.596;2023-05-10T10:49:34;16.30;99.90
3690;DHT22;1861;50.240;8.596;2023-05-10T10:52:30;16.30;99.90
3690;DHT22;1861;50.240;8.596;2023-05-10T10:55:02;16.30;99.90
3690;DHT22;1861;50.240;8.596;2023-05-10T10:57:33;16.20;99.90
3690;DHT22;1861;50.240;8.596;2023-05-10T11:00:27;16.20;99.90
3690;DHT22;1861;50.240;8.596;2023-05-10T11:03:01;16.20;99.90
3690;DHT22;1861;50.240;8.596;2023-05-10T11:05:36;16.20;99.90
3690;DHT22;1861;50.240;8.596;2023-05-10T11:08:09;16.10;99.90
3690;DHT22;1861;50.240;8.596;2023-05-10T11:10:38;16.00;99.90
3690;DHT22;1861;50.240;8.596;2023-05-10T11:13:09;15.90;99.90
3690;DHT22;1861;50.240;8.596;2023-05-10T11:15:38;15.90;99.90
3690;DHT22;1861;50.240;8.596;2023-05-10T11:18:25;15.80;99.90
3690;DHT22;1861;50.240;8.596;2023-05-10T11:20:56;15.80;99.90
3690;DHT22;1861;50.240;8.596;2023-05-10T11:23:30;15.80;99.90
3690;DHT22;1861;50.240;8.596;2023-05-10T11:25:59;15.80;99.90
3690;DHT22;1861;50.240;8.596;2023-05-10T11:28:29;15.70;99.90
3690;DHT22;1861;50.240;8.596;2023-05-10T11:30:57;15.80;99.90
3690;DHT22;1861;50.240;8.596;2023-05-10T11:33:25;15.80;99.90
3690;DHT22;1861;50.240;8.596;2023-05-10T11:35:53;15.80;99.90
3690;DHT22;1861;50.240;8.596;2023-05-10T11:38:21;15.80;99.90
3690;DHT22;1861;50.240;8.596;2023-05-10T11:40:51;15.90;99.90
3690;DHT22;1861;50.240;8.596;2023-05-10T11:43:23;15.90;99.90
3690;DHT22;1861;50.240;8.596;2023-05-10T11:45:56;15.90;99.90
3690;DHT22;1861;50.240;8.596;2023-05-10T11:48:24;15.90;99.90
3690;DHT22;1861;50.240;8.596;2023-05-10T11:50:52;15.80;99.90
3690;DHT22;1861;50.240;8.596;2023-05-10T11:53:26;15.80;99.90
3690;DHT22;1861;50.240;8.596;2023-05-10T11:55:54;15.80;99.90
3690;DHT22;1861;50.240;8.596;2023-05-10T11:58:22;15.70;99.90
3690;DHT22;1861;50.240;8.596;2023-05-10T12:00:50;15.80;99.90
3690;DHT22;1861;50.240;8.596;2023-05-10T12:03:20;15.80;99.90
3690;DHT22;1861;50.240;8.596;2023-05-10T12:05:48;15.80;99.90
3690;DHT22;1861;50.240;8.596;2023-05-10T12:08:21;15.80;99.90
3690;DHT22;1861;50.240;8.596;2023-05-10T12:10:50;15.90;99.90
3690;DHT22;1861;50.240;8.596;2023-05-10T12:13:19;15.90;99.90
3690;DHT22;1861;50.240;8.596;2023-05-10T12:15:48;16.00;99.90
3690;DHT22;1861;50.240;8.596;2023-05-10T12:18:24;16.00;99.90
3690;DHT22;1861;50.240;8.596;2023-05-10T12:20:52;16.10;99.90
3690;DHT22;1861;50.240;8.596;2023-05-10T12:23:21;16.00;99.90
3690;DHT22;1861;50.240;8.596;2023-05-10T12:25:49;16.00;99.90
3690;DHT22;1861;50.240;8.596;2023-05-10T12:28:19;16.10;99.90
3690;DHT22;1861;50.240;8.596;2023-05-10T12:30:47;16.10;99.90
3690;DHT22;1861;50.240;8.596;2023-05-10T12:33:17;16.10;99.90
3690;DHT22;1861;50.240;8.596;2023-05-10T12:35:48;16.00;99.90
3690;DHT22;1861;50.240;8.596;2023-05-10T12:38:25;16.00;99.90
3690;DHT22;1861;50.240;8.596;2023-05-10T12:40:53;16.00;99.90
3690;DHT22;1861;50.240;8.596;2023-05-10T12:43:21;16.00;99.90
3690;DHT22;1861;50.240;8.596;2023-05-10T12:45:50;16.10;99.90
3690;DHT22;1861;50.240;8.596;2023-05-10T12:48:18;16.10;99.90
3690;DHT22;1861;50.240;8.596;2023-05-10T12:50:48;16.10;99.90
3690;DHT22;1861;50.240;8.596;2023-05-10T12:53:16;16.10;99.90
3690;DHT22;1861;50.240;8.596;2023-05-10T12:55:44;16.10;99.90
3690;DHT22;1861;50.240;8.596;2023-05-10T12:58:13;16.10;99.90
3690;DHT22;1861;50.240;8.596;2023-05-10T13:01:00;16.10;99.90
3690;DHT22;1861;50.240;8.596;2023-05-10T13:03:28;16.00;99.90
3690;DHT22;1861;50.240;8.596;2023-05-10T13:05:58;16.10;99.90
3690;DHT22;1861;50.240;8.596;2023-05-10T13:08:26;16.20;99.90
3690;DHT22;1861;50.240;8.596;2023-05-10T13:10:56;16.20;99.90
3690;DHT22;1861;50.240;8.596;2023-05-10T13:13:24;16.30;99.90
3690;DHT22;1861;50.240;8.596;2023-05-10T13:15:52;16.50;99.90
3690;DHT22;1861;50.240;8.596;2023-05-10T13:18:21;16.50;99.90
3690;DHT22;1861;50.240;8.596;2023-05-10T13:20:49;16.60;99.90
3690;DHT22;1861;50.240;8.596;2023-05-10T13:23:18;16.60;99.90
3690;DHT22;1861;50.240;8.596;2023-05-10T13:25:47;16.50;99.90
3690;DHT22;1861;50.240;8.596;2023-05-10T13:28:15;16.60;99.90
3690;DHT22;1861;50.240;8.596;2023-05-10T13:30:43;16.50;99.90
3690;DHT22;1861;50.240;8.596;2023-05-10T13:33:11;16.40;99.90
3690;DHT22;1861;50.240;8.596;2023-05-10T13:35:39;16.40;99.90
3690;DHT22;1861;50.240;8.596;2023-05-10T13:38:07;16.30;99.90
3690;DHT22;1861;50.240;8.596;2023-05-10T13:40:37;16.30;99.90
3690;DHT22;1861;50.240;8.596;2023-05-10T13:43:05;16.20;99.90
3690;DHT22;1861;50.240;8.596;2023-05-10T13:45:33;16.20;99.90
3690;DHT22;1861;50.240;8.596;2023-05-10T13:48:01;16.10;99.90
3690;DHT22;1861;50.240;8.596;2023-05-10T13:50:29;16.20;99.90
3690;DHT22;1861;50.240;8.596;2023-05-10T13:52:57;16.00;99.90
3690;DHT22;1861;50.240;8.596;2023-05-10T13:55:26;16.10;99.90
3690;DHT22;1861;50.240;8.596;2023-05-10T13:57:55;16.10;99.90
3690;DHT22;1861;50.240;8.596;2023-05-10T14:00:23;16.00;99.90
3690;DHT22;1861;50.240;8.596;2023-05-10T14:02:51;16.10;99.90
3690;DHT22;1861;50.240;8.596;2023-05-10T14:05:19;16.00;99.90
3690;DHT22;1861;50.240;8.596;2023-05-10T14:07:52;16.00;99.90
3690;DHT22;1861;50.240;8.596;2023-05-10T14:10:20;16.00;99.90
3690;DHT22;1861;50.240;8.596;2023-05-10T14:12:49;16.00;99.90
3690;DHT22;1861;50.240;8.596;2023-05-10T14:15:19;16.00;99.90
3690;DHT22;1861;50.240;8.596;2023-05-10T14:17:47;16.10;99.90
3690;DHT22;1861;50.240;8.596;2023-05-10T14:20:15;16.10;99.90
3690;DHT22;1861;50.240;8.596;2023-05-10T14:22:43;16.10;99.90
3690;DHT22;1861;50.240;8.596;2023-05-10T14:25:11;16.20;99.90
3690;DHT22;1861;50.240;8.596;2023-05-10T14:27:40;16.20;99.90
3690;DHT22;1861;50.240;8.596;2023-05-10T14:30:09;16.20;99.90
3690;DHT22;1861;50.240;8.596;2023-05-10T14:32:38;16.20;99.90
3690;DHT22;1861;50.240;8.596;2023-05-10T14:35:07;16.20;99.90
3690;DHT22;1861;50.240;8.596;2023-05-10T14:37:38;16.10;99.90
3690;DHT22;1861;50.240;8.596;2023-05-10T14:40:08;16.10;99.90
3690;DHT22;1861;50.240;8.596;2023-05-10T14:42:36;16.20;99.90
3690;DHT22;1861;50.240;8.596;2023-05-10T14:45:05;16.20;99.90
3690;DHT22;1861;50.240;8.596;2023-05-10T14:47:33;16.20;99.90
3690;DHT22;1861;50.240;8.596;2023-05-10T14:50:03;16.30;99.90
3690;DHT22;1861;50.240;8.596;2023-05-10T14:52:31;16.30;99.90
3690;DHT22;1861;50.240;8.596;2023-05-10T14:55:00;16.30;99.90
3690;DHT22;1861;50.240;8.596;2023-05-10T14:57:28;16.30;99.90
3690;DHT22;1861;50.240;8.596;2023-05-10T14:59:56;16.40;99.90
3690;DHT22;1861;50.240;8.596;2023-05-10T15:02:24;16.40;99.90
3690;DHT22;1861;50.240;8.596;2023-05-10T15:04:53;16.30;99.90
3690;DHT22;1861;50.240;8.596;2023-05-10T15:07:23;16.40;99.90
3690;DHT22;1861;50.240;8.596;2023-05-10T15:09:51;16.40;99.90
3690;DHT22;1861;50.240;8.596;2023-05-10T15:12:20;16.40;99.90
3690;DHT22;1861;50.240;8.596;2023-05-10T15:14:48;16.40;99.90
3690;DHT22;1861;50.240;8.596;2023-05-10T15:17:16;16.50;99.90
3690;DHT22;1861;50.240;8.596;2023-05-10T15:19:44;16.40;99.90
3690;DHT22;1861;50.240;8.596;2023-05-10T15:22:13;16.50;99.90
3690;DHT22;1861;50.240;8.596;2023-05-10T15:24:42;16.50;99.90
3690;DHT22;1861;50.240;8.596;2023-05-10T15:27:13;16.40;99.90
3690;DHT22;1861;50.240;8.596;2023-05-10T15:29:41;16.50;99.90
3690;DHT22;1861;50.240;8.596;2023-05-10T15:32:09;16.50;99.90
3690;DHT22;1861;50.240;8.596;2023-05-10T15:34:37;16.50;99.90
3690;DHT22;1861;50.240;8.596;2023-05-10T15:37:05;16.50;99.90
3690;DHT22;1861;50.240;8.596;2023-05-10T15:39:34;16.50;99.90
3690;DHT22;1861;50.240;8.596;2023-05-10T15:42:03;16.50;99.90
3690;DHT22;1861;50.240;8.596;2023-05-10T15:44:31;16.60;99.90
3690;DHT22;1861;50.240;8.596;2023-05-10T15:47:01;16.60;99.90
3690;DHT22;1861;50.240;8.596;2023-05-10T15:49:30;16.60;99.90
3690;DHT22;1861;50.240;8.596;2023-05-10T15:51:58;16.60;99.90
3690;DHT22;1861;50.240;8.596;2023-05-10T15:54:26;16.50;99.90
3690;DHT22;1861;50.240;8.596;2023-05-10T15:56:54;16.50;99.90
3690;DHT22;1861;50.240;8.596;2023-05-10T15:59:24;16.50;99.90
3690;DHT22;1861;50.240;8.596;2023-05-10T16:01:52;16.50;99.90
3690;DHT22;1861;50.240;8.596;2023-05-10T16:04:21;16.50;99.90
3690;DHT22;1861;50.240;8.596;2023-05-10T16:06:49;16.50;99.90
3690;DHT22;1861;50.240;8.596;2023-05-10T16:09:17;16.50;99.90
3690;DHT22;1861;50.240;8.596;2023-05-10T16:11:45;16.50;99.90
3690;DHT22;1861;50.240;8.596;2023-05-10T16:14:13;16.50;99.90
3690;DHT22;1861;50.240;8.596;2023-05-10T16:16:43;16.50;99.90
3690;DHT22;1861;50.240;8.596;2023-05-10T16:19:11;16.50;99.90